Airfield :







YOU CAN JOIN US ON...

 
LOGIN :

Register | Disclaimer

   EN    FR    IT 

 









Legend :    VFR   Marginal VFR   IFR   Intensive IFR   Very Intensive IFR
Visi :
Ceiling :
>= 8 km
>= 3000ft
5 to 8 km
1000 to 3000 ft
1500m to 5 km
500 to 1000 ft
800 to 1500m
200 to 500 ft
< 800m
< 200 ft
Symbols :   Thunderstorms  Fog  Heavy snow  Heavy precipitations  Wind > 20 kt






- Airport Elevation : 22 ft
- IATA code : YDP


CYDP - Nain

CURRENT METAR :
  • 161118Z 09011KT 3SM BR SCT003 BKN005 OVC010 07/07 A2974 RMK ST3SF4SF1 SLP074

EXPIRED METARs :
  • 161037Z 09010KT 3SM BR SCT003 BKN005 OVC012 07/07 A2974 RMK ST4ST3SF1 SLP075
  • 161012Z 08008G15KT 3SM -DZ BR SCT002 OVC003 07/07 A2974 RMK ST4ST4 SLP074
  • 161000Z 08014KT 3SM -RA BR SCT002 OVC004 07/07 A2974 RMK ST4ST4 SLP073
  • 160918Z 08009G15KT 1 1/2SM -RA BR SCT002 OVC005 07/07 A2974 RMK FG1ST3ST4 SLP074
  • 160900Z 08014G20KT 1 1/2SM -DZ BR SCT002 BKN005 07/07 A2974 RMK FG1ST3ST4 SLP074
  • 160846Z 09011G17KT 2SM -RA BR SCT003 OVC005 07/07 A2974 RMK ST4ST4 SLP074
  • 160818Z 09012KT 2SM -DZ BR SCT003 OVC005 07/07 A2974 RMK ST4ST4 SLP074

TAF TAF CYDP
Valid from the 16 at 10:00 until the 16 at 22:00 UTC


160940Z 1610/1622 10012G22KT 1SM -RA -DZ BR SCT002 OVC004
TEMPO 1610/1622 6SM BR
BECMG 1616/1618 08013KT RMK NXT FCST BY 161400Z
CZQX FIR / North America



MET'MAP, your aeronautical weather chart ! - Copyright ORBIFLY December 2007 - Disclaimer

ORBIFLY MET'MAP TEAM :

Programming & Development : Alexandra Zaïnal
Original concept : Baudouin d'Aumeries
Technical & hardware support : Manuel Goepfert
Assistance : Marc-Olivier Méhu




SOURCES & CREDITS :

   NOAA